createdAt,value
2022-11-24T00:02:14.765Z,100360.23
2022-11-24T00:04:44.531Z,100360.52
2022-11-24T00:07:14.629Z,100356.89
2022-11-24T00:09:44.206Z,100371.21
2022-11-24T00:12:14.150Z,100362.43
2022-11-24T00:14:44.559Z,100373.80
2022-11-24T00:17:13.975Z,100372.75
2022-11-24T00:19:44.083Z,100367.84
2022-11-24T00:22:13.810Z,100369.91
2022-11-24T00:24:43.580Z,100379.95
2022-11-24T00:27:13.516Z,100377.83
2022-11-24T00:29:43.546Z,100377.23
2022-11-24T00:32:13.307Z,100377.23
2022-11-24T00:34:43.115Z,100379.43
2022-11-24T00:37:12.849Z,100382.22
2022-11-24T00:39:42.585Z,100378.20
2022-11-24T00:42:14.093Z,100378.88
2022-11-24T00:44:43.922Z,100373.83
2022-11-24T00:47:13.792Z,100379.30
2022-11-24T00:49:43.562Z,100380.77
2022-11-24T00:52:13.174Z,100381.84
2022-11-24T00:54:42.938Z,100369.86
2022-11-24T00:57:12.722Z,100374.63
2022-11-24T00:59:42.490Z,100376.52
2022-11-24T01:02:12.299Z,100373.94
2022-11-24T01:04:42.162Z,100381.22
2022-11-24T01:07:12.041Z,100375.89
2022-11-24T01:09:43.505Z,100379.58
2022-11-24T01:12:13.485Z,100386.94
2022-11-24T01:14:43.509Z,100386.72
2022-11-24T01:17:13.537Z,100386.13
2022-11-24T01:19:43.271Z,100386.41
2022-11-24T01:22:13.023Z,100396.03
2022-11-24T01:24:43.187Z,100391.53
2022-11-24T01:27:13.000Z,100394.29
2022-11-24T01:29:42.730Z,100398.75
2022-11-24T01:32:12.506Z,100410.08
2022-11-24T01:34:42.596Z,100406.45
2022-11-24T01:37:12.057Z,100410.66
2022-11-24T01:39:41.859Z,100417.46
2022-11-24T01:42:11.785Z,100417.77
2022-11-24T01:44:43.013Z,100423.41
2022-11-24T01:47:33.682Z,100422.84
2022-11-24T01:50:05.525Z,100420.59
2022-11-24T01:52:41.143Z,100418.45
2022-11-24T01:55:13.911Z,100412.54
2022-11-24T01:57:58.570Z,100416.84
2022-11-24T02:00:28.837Z,100416.84
2022-11-24T02:02:59.824Z,100424.48
2022-11-24T02:05:38.554Z,100422.58
2022-11-24T02:08:12.843Z,100424.38
2022-11-24T02:10:43.934Z,100432.00
2022-11-24T02:13:15.782Z,100439.42
2022-11-24T02:15:45.621Z,100440.47
2022-11-24T02:18:15.032Z,100436.15
2022-11-24T02:20:44.837Z,100439.70
2022-11-24T02:23:20.553Z,100441.06
2022-11-24T02:26:11.422Z,100448.30
2022-11-24T02:28:41.744Z,100446.63
2022-11-24T02:31:11.689Z,100444.70
2022-11-24T02:33:41.632Z,100451.97
2022-11-24T02:36:11.255Z,100453.58
2022-11-24T02:38:40.994Z,100457.14
2022-11-24T02:41:14.077Z,100468.84
2022-11-24T02:43:46.278Z,100463.16
2022-11-24T02:46:16.158Z,100465.85
2022-11-24T02:48:46.036Z,100470.13
2022-11-24T02:51:16.047Z,100469.46
2022-11-24T02:53:46.136Z,100464.41
2022-11-24T02:56:15.618Z,100466.41
2022-11-24T02:58:45.663Z,100457.92
2022-11-24T03:01:15.464Z,100464.35
2022-11-24T03:03:45.356Z,100461.16
2022-11-24T03:06:15.059Z,100459.70
2022-11-24T03:08:45.181Z,100472.67
2022-11-24T03:11:14.663Z,100472.67
2022-11-24T03:13:44.394Z,100471.30
2022-11-24T03:16:14.178Z,100467.39
2022-11-24T03:18:43.925Z,100470.98
2022-11-24T03:21:13.952Z,100470.36
2022-11-24T03:23:43.688Z,100472.03
2022-11-24T03:26:16.127Z,100477.42
2022-11-24T03:28:46.485Z,100478.67
2022-11-24T03:31:16.442Z,100480.96
2022-11-24T03:33:46.183Z,100485.83
2022-11-24T03:36:16.794Z,100491.58
2022-11-24T03:38:46.760Z,100491.32
2022-11-24T03:41:16.870Z,100491.27
2022-11-24T03:43:46.586Z,100491.58
2022-11-24T03:46:16.175Z,100495.69
2022-11-24T03:48:45.858Z,100498.69
2022-11-24T03:51:15.634Z,100494.08
2022-11-24T03:53:45.400Z,100507.22
2022-11-24T03:56:15.837Z,100499.05
2022-11-24T03:58:45.630Z,100499.33
2022-11-24T04:01:15.425Z,100492.72
2022-11-24T04:03:45.172Z,100497.70
2022-11-24T04:06:14.982Z,100495.08
2022-11-24T04:08:44.803Z,100495.92
2022-11-24T04:11:16.486Z,100496.97
2022-11-24T04:13:48.417Z,100507.05
2022-11-24T04:16:18.169Z,100509.27
2022-11-24T04:18:47.895Z,100511.20
2022-11-24T04:21:17.924Z,100511.18
2022-11-24T04:23:48.087Z,100511.53
2022-11-24T04:26:17.525Z,100513.72
2022-11-24T04:28:47.280Z,100513.28
2022-11-24T04:31:17.795Z,100513.28
2022-11-24T04:33:47.575Z,100513.38
2022-11-24T04:36:17.189Z,100514.33
2022-11-24T04:39:23.378Z,100517.77
2022-11-24T04:41:18.339Z,100521.44
2022-11-24T04:43:50.454Z,100522.80
2022-11-24T04:46:20.244Z,100531.11
2022-11-24T04:48:49.994Z,100534.55
2022-11-24T04:51:19.808Z,100536.53
2022-11-24T04:53:52.970Z,100544.65
2022-11-24T04:56:23.005Z,100543.19
2022-11-24T04:58:52.736Z,100542.50
2022-11-24T05:01:22.550Z,100546.64
2022-11-24T05:03:57.229Z,100548.56
2022-11-24T05:06:26.976Z,100556.95
2022-11-24T05:08:56.711Z,100556.05
2022-11-24T05:11:26.443Z,100556.05
2022-11-24T05:13:56.170Z,100564.77
2022-11-24T05:16:26.503Z,100560.52
2022-11-24T05:18:56.526Z,100578.19
2022-11-24T05:21:26.635Z,100578.19
2022-11-24T05:23:56.065Z,100586.58
2022-11-24T05:26:25.578Z,100587.84
2022-11-24T05:28:55.543Z,100593.48
2022-11-24T05:31:25.374Z,100603.09
2022-11-24T05:33:55.109Z,100604.36
2022-11-24T05:36:42.437Z,100605.46
2022-11-24T05:39:12.163Z,100607.00
2022-11-24T05:41:43.172Z,100611.15
2022-11-24T05:44:13.000Z,100622.47
2022-11-24T05:46:42.824Z,100620.59
2022-11-24T05:49:12.581Z,100620.66
2022-11-24T05:51:42.317Z,100628.36
2022-11-24T05:54:11.729Z,100634.02
2022-11-24T05:56:41.764Z,100635.41
2022-11-24T05:59:11.488Z,100638.83
2022-11-24T06:01:41.274Z,100651.84
2022-11-24T06:04:11.198Z,100649.39
2022-11-24T06:06:40.974Z,100657.47
2022-11-24T06:09:10.685Z,100660.86
2022-11-24T06:11:40.426Z,100661.24
2022-11-24T06:14:12.816Z,100665.89
2022-11-24T06:16:42.607Z,100670.80
2022-11-24T06:19:12.970Z,100672.09
2022-11-24T06:21:42.730Z,100672.15
2022-11-24T06:24:12.211Z,100676.24
2022-11-24T06:26:42.476Z,100677.61
2022-11-24T06:29:12.197Z,100687.69
2022-11-24T06:31:41.979Z,100698.13
2022-11-24T06:34:13.804Z,100696.56
2022-11-24T06:36:43.548Z,100703.09
2022-11-24T06:39:13.259Z,100711.83
2022-11-24T06:41:42.976Z,100711.83
2022-11-24T06:44:12.750Z,100719.85
2022-11-24T06:46:42.740Z,100727.48
2022-11-24T06:49:12.641Z,100727.48
2022-11-24T06:51:42.549Z,100729.72
2022-11-24T06:54:15.043Z,100725.80
2022-11-24T06:56:44.958Z,100727.77
2022-11-24T06:59:20.389Z,100738.31
2022-11-24T07:01:50.079Z,100745.67
2022-11-24T07:04:20.249Z,100762.17
2022-11-24T07:06:49.981Z,100763.09
2022-11-24T07:09:19.708Z,100770.81
2022-11-24T07:11:49.429Z,100778.05
2022-11-24T07:14:19.113Z,100780.13
2022-11-24T07:16:49.474Z,100783.88
2022-11-24T07:19:24.718Z,100791.59
2022-11-24T07:21:50.697Z,100791.59
2022-11-24T07:24:20.508Z,100807.44
2022-11-24T07:26:50.265Z,100805.76
2022-11-24T07:29:20.031Z,100809.87
2022-11-24T07:31:50.247Z,100814.95
2022-11-24T07:34:19.997Z,100820.19
2022-11-24T07:36:50.131Z,100820.98
2022-11-24T07:39:19.805Z,100829.98
2022-11-24T07:41:49.838Z,100832.27
2022-11-24T07:44:19.279Z,100839.11
2022-11-24T07:46:50.644Z,100846.02
2022-11-24T07:49:20.713Z,100856.22
2022-11-24T07:51:50.524Z,100856.94
2022-11-24T07:54:20.060Z,100857.29
2022-11-24T07:56:50.168Z,100868.71
2022-11-24T07:59:19.894Z,100868.18
2022-11-24T08:01:49.688Z,100875.30
2022-11-24T08:04:19.218Z,100884.50
2022-11-24T08:06:48.969Z,100883.78
2022-11-24T08:09:18.735Z,100901.87
2022-11-24T08:11:48.775Z,100901.83
2022-11-24T08:14:18.207Z,100901.39
2022-11-24T08:16:48.023Z,100911.03
2022-11-24T08:19:17.767Z,100902.80
2022-11-24T08:21:47.700Z,100906.63
2022-11-24T08:24:17.257Z,100908.67
2022-11-24T08:26:47.567Z,100913.63
2022-11-24T08:29:17.289Z,100915.23
2022-11-24T08:31:47.438Z,100911.16
2022-11-24T08:34:17.095Z,100917.95
2022-11-24T08:36:46.855Z,100912.67
2022-11-24T08:39:16.587Z,100925.11
2022-11-24T08:41:46.398Z,100937.92
2022-11-24T08:44:18.145Z,100941.61
2022-11-24T08:46:47.967Z,100942.09
2022-11-24T08:49:18.831Z,100947.89
2022-11-24T08:51:49.903Z,100947.59
2022-11-24T08:54:20.304Z,100935.00
2022-11-24T08:56:50.934Z,100935.00
2022-11-24T08:59:20.856Z,100953.92
2022-11-24T09:01:51.075Z,100957.17
2022-11-24T09:04:20.925Z,100955.42
2022-11-24T09:06:50.739Z,100957.30
2022-11-24T09:09:20.500Z,100965.41
2022-11-24T09:11:50.224Z,100969.50
2022-11-24T09:14:20.079Z,100970.09
2022-11-24T09:16:49.907Z,100978.58
2022-11-24T09:19:19.642Z,100978.36
2022-11-24T09:21:49.379Z,100982.27
2022-11-24T09:24:18.987Z,100986.16
2022-11-24T09:26:48.751Z,100993.88
2022-11-24T09:29:18.498Z,100989.72
2022-11-24T09:31:48.288Z,100999.09
2022-11-24T09:34:18.059Z,101007.50
2022-11-24T09:36:47.796Z,101009.13
2022-11-24T09:39:17.515Z,101003.09
2022-11-24T09:41:59.199Z,101009.20
2022-11-24T09:44:55.224Z,101012.44
2022-11-24T09:47:46.126Z,101012.44
2022-11-24T09:50:27.921Z,101016.76
2022-11-24T09:53:15.584Z,101017.39
2022-11-24T09:55:56.986Z,101014.92
2022-11-24T09:58:32.356Z,101024.78
2022-11-24T10:01:12.227Z,101026.52
2022-11-24T10:03:44.763Z,101035.48
2022-11-24T10:06:30.077Z,101031.81
2022-11-24T10:09:05.796Z,101030.01
2022-11-24T10:11:56.043Z,101038.00
2022-11-24T10:14:34.319Z,101040.28
2022-11-24T10:17:18.892Z,101047.36
2022-11-24T10:20:00.541Z,101050.40
2022-11-24T10:22:58.536Z,101050.09
2022-11-24T10:25:34.153Z,101062.09
2022-11-24T10:28:09.368Z,101074.26
2022-11-24T10:30:39.222Z,101073.00
2022-11-24T10:33:14.979Z,101073.00
2022-11-24T10:35:55.980Z,101072.69
2022-11-24T10:38:40.449Z,101082.61
2022-11-24T10:41:13.244Z,101082.61
2022-11-24T10:43:44.146Z,101087.80
2022-11-24T10:46:16.267Z,101085.06
2022-11-24T10:48:49.069Z,101082.50
2022-11-24T10:51:30.534Z,101094.05
2022-11-24T10:54:03.338Z,101095.98
2022-11-24T10:56:41.187Z,101096.94
2022-11-24T10:59:32.453Z,101096.65
2022-11-24T11:02:02.707Z,101100.11
2022-11-24T11:04:36.941Z,101105.90
2022-11-24T11:07:25.289Z,101109.90
2022-11-24T11:10:20.705Z,101105.78
2022-11-24T11:12:50.592Z,101101.59
2022-11-24T11:15:31.697Z,101106.70
2022-11-24T11:18:02.194Z,101105.58
2022-11-24T11:20:36.544Z,101104.87
2022-11-24T11:23:09.324Z,101104.63
2022-11-24T11:25:41.019Z,101101.05
2022-11-24T11:28:20.463Z,101104.16
2022-11-24T11:31:20.053Z,101099.75
2022-11-24T11:36:11.767Z,101094.08
2022-11-24T11:38:42.470Z,101088.17
2022-11-24T11:41:33.461Z,101088.17
2022-11-24T11:44:17.873Z,101094.56
2022-11-24T11:46:48.265Z,101094.59
2022-11-24T11:49:17.979Z,101095.23
2022-11-24T11:52:10.373Z,101092.09
2022-11-24T11:54:48.577Z,101095.84
2022-11-24T11:57:37.320Z,101092.06
2022-11-24T12:00:22.920Z,101090.55
2022-11-24T12:03:18.069Z,101063.45
2022-11-24T12:05:53.533Z,101063.45
2022-11-24T12:09:11.653Z,101097.95
2022-11-24T12:11:30.395Z,101098.20
2022-11-24T12:14:13.277Z,101098.20
2022-11-24T12:16:57.392Z,101105.84
2022-11-24T12:19:30.191Z,101106.14
2022-11-24T12:22:25.169Z,101095.63
2022-11-24T12:25:00.587Z,101095.70
2022-11-24T12:27:51.524Z,101098.53
2022-11-24T12:30:22.994Z,101103.41
2022-11-24T12:33:07.940Z,101094.41
2022-11-24T12:35:43.891Z,101099.22
2022-11-24T12:38:29.350Z,101096.31
2022-11-24T12:43:53.668Z,101103.65
2022-11-24T12:46:50.308Z,101103.30
2022-11-24T12:49:40.522Z,101101.01
2022-11-24T12:52:29.031Z,101110.31
2022-11-24T12:55:00.587Z,101113.42
2022-11-24T12:57:39.757Z,101116.77
2022-11-24T13:00:32.703Z,101123.00
2022-11-24T13:03:23.450Z,101124.72
2022-11-24T13:05:58.948Z,101121.77
2022-11-24T13:08:30.549Z,101118.26
2022-11-24T13:11:25.328Z,101124.56
2022-11-24T13:14:00.474Z,101122.76
2022-11-24T13:16:48.756Z,101124.06
2022-11-24T13:19:04.850Z,101120.14
2022-11-24T13:21:38.697Z,101125.37
2022-11-24T13:24:25.082Z,101126.48
2022-11-24T13:27:17.951Z,101121.39
2022-11-24T13:29:49.540Z,101121.25
2022-11-24T13:32:22.150Z,101126.42
2022-11-24T13:34:57.595Z,101122.97
2022-11-24T13:37:34.564Z,101122.97
2022-11-24T13:40:18.100Z,101117.58
2022-11-24T13:43:02.649Z,101117.27
2022-11-24T13:45:45.798Z,101111.83
2022-11-24T13:48:23.982Z,101106.05
2022-11-24T13:50:57.071Z,101102.42
2022-11-24T13:53:35.592Z,101104.98
2022-11-24T13:56:16.334Z,101107.72
2022-11-24T13:58:52.435Z,101112.13
2022-11-24T14:01:33.431Z,101099.01
2022-11-24T14:04:30.418Z,101112.63
2022-11-24T14:07:01.179Z,101112.95
2022-11-24T14:09:46.602Z,101105.02
2022-11-24T14:12:19.156Z,101098.81
2022-11-24T14:14:51.663Z,101097.13
2022-11-24T14:17:24.457Z,101094.06
2022-11-24T14:19:56.708Z,101090.30
2022-11-24T14:22:35.300Z,101097.17
2022-11-24T14:25:07.641Z,101096.77
2022-11-24T14:27:39.988Z,101103.83
2022-11-24T14:30:14.408Z,101095.48
2022-11-24T14:32:47.202Z,101094.44
2022-11-24T14:35:26.070Z,101095.65
2022-11-24T14:37:56.490Z,101096.39
2022-11-24T14:40:46.559Z,101085.33
2022-11-24T14:43:25.115Z,101093.88
2022-11-24T14:46:07.172Z,101093.88
2022-11-24T14:48:42.762Z,101091.71
2022-11-24T14:51:15.278Z,101094.67
2022-11-24T14:53:47.641Z,101091.30
2022-11-24T14:56:28.674Z,101097.95
2022-11-24T14:58:59.538Z,101094.28
2022-11-24T15:01:34.794Z,101103.25
2022-11-24T15:07:19.158Z,101115.48
2022-11-24T15:09:51.973Z,101109.89
2022-11-24T15:12:34.400Z,101110.12
2022-11-24T15:15:20.115Z,101113.20
2022-11-24T15:17:53.448Z,101123.01
2022-11-24T15:20:31.995Z,101114.77
2022-11-24T15:23:24.205Z,101122.23
2022-11-24T15:26:05.538Z,101120.77
2022-11-24T15:28:35.441Z,101117.25
2022-11-24T15:31:07.338Z,101129.27
2022-11-24T15:33:37.019Z,101121.61
2022-11-24T15:36:08.873Z,101130.30
2022-11-24T15:38:38.607Z,101128.43
2022-11-24T15:41:17.719Z,101124.38
2022-11-24T15:43:47.841Z,101134.66
2022-11-24T15:46:17.467Z,101138.42
2022-11-24T15:48:47.300Z,101137.81
2022-11-24T15:51:17.049Z,101133.72
2022-11-24T15:53:55.671Z,101136.27
2022-11-24T15:56:29.163Z,101136.08
2022-11-24T15:58:58.676Z,101131.60
2022-11-24T16:01:31.658Z,101141.47
2022-11-24T16:04:02.504Z,101144.47
2022-11-24T16:06:32.496Z,101141.11
2022-11-24T16:09:02.251Z,101140.88
2022-11-24T16:11:32.007Z,101137.36
2022-11-24T16:14:02.050Z,101139.12
2022-11-24T16:16:31.972Z,101142.61
2022-11-24T16:19:01.773Z,101132.30
2022-11-24T16:21:31.911Z,101134.55
2022-11-24T16:24:01.395Z,101129.98
2022-11-24T16:26:31.160Z,101129.38
2022-11-24T16:29:00.887Z,101138.77
2022-11-24T16:31:30.993Z,101140.20
2022-11-24T16:34:00.749Z,101137.16
2022-11-24T16:36:30.323Z,101141.84
2022-11-24T16:39:01.132Z,101132.66
2022-11-24T16:41:30.893Z,101136.34
2022-11-24T16:44:00.641Z,101139.38
2022-11-24T16:46:30.474Z,101143.27
2022-11-24T16:49:01.140Z,101141.91
2022-11-24T16:51:34.680Z,101141.48
2022-11-24T16:54:04.002Z,101152.05
2022-11-24T16:56:33.821Z,101140.39
2022-11-24T16:59:03.733Z,101141.95
2022-11-24T17:01:33.583Z,101141.11
2022-11-24T17:04:06.997Z,101146.46
2022-11-24T17:06:35.496Z,101140.41
2022-11-24T17:09:05.667Z,101147.75
2022-11-24T17:11:35.442Z,101136.80
2022-11-24T17:14:05.823Z,101136.80
2022-11-24T17:16:35.705Z,101131.69
2022-11-24T17:19:06.500Z,101139.68
2022-11-24T17:21:36.616Z,101138.71
2022-11-24T17:24:10.074Z,101145.23
2022-11-24T17:26:42.501Z,101142.37
2022-11-24T17:29:11.414Z,101133.86
2022-11-24T17:31:41.230Z,101140.86
2022-11-24T17:34:13.416Z,101149.28
2022-11-24T17:36:44.882Z,101147.01
2022-11-24T17:39:15.332Z,101156.19
2022-11-24T17:41:45.520Z,101150.41
2022-11-24T17:44:15.249Z,101146.95
2022-11-24T17:46:45.655Z,101152.06
2022-11-24T17:49:15.398Z,101154.17
2022-11-24T17:51:46.763Z,101159.55
2022-11-24T17:54:45.229Z,101155.05
2022-11-24T17:56:48.891Z,101157.87
2022-11-24T17:59:18.859Z,101162.89
2022-11-24T18:01:48.670Z,101164.22
2022-11-24T18:04:18.399Z,101169.00
2022-11-24T18:06:48.194Z,101163.27
2022-11-24T18:09:18.247Z,101157.87
2022-11-24T18:11:47.974Z,101175.45
2022-11-24T18:14:17.756Z,101162.80
2022-11-24T18:16:47.610Z,101156.28
2022-11-24T18:19:17.745Z,101158.34
2022-11-24T18:21:47.455Z,101158.34
2022-11-24T18:24:23.777Z,101160.61
2022-11-24T18:26:50.137Z,101159.23
2022-11-24T18:29:19.881Z,101166.84
2022-11-24T18:31:49.701Z,101157.41
2022-11-24T18:34:19.727Z,101165.09
2022-11-24T18:36:51.109Z,101155.34
2022-11-24T18:39:20.572Z,101156.92
2022-11-24T18:41:50.401Z,101149.44
2022-11-24T18:44:20.584Z,101162.00
2022-11-24T18:46:50.695Z,101163.18
2022-11-24T18:49:20.458Z,101157.19
2022-11-24T18:51:50.596Z,101157.19
2022-11-24T18:54:20.513Z,101160.53
2022-11-24T18:56:50.360Z,101146.48
2022-11-24T18:59:20.178Z,101150.45
2022-11-24T19:01:50.091Z,101148.05
2022-11-24T19:04:19.825Z,101149.69
2022-11-24T19:06:49.559Z,101147.35
2022-11-24T19:09:21.419Z,101144.95
2022-11-24T19:11:51.145Z,101151.05
2022-11-24T19:14:20.963Z,101149.90
2022-11-24T19:16:50.938Z,101142.62
2022-11-24T19:19:20.751Z,101138.64
2022-11-24T19:21:50.492Z,101144.27
2022-11-24T19:24:19.987Z,101151.06
2022-11-24T19:26:51.193Z,101153.27
2022-11-24T19:29:21.393Z,101152.69
2022-11-24T19:31:51.198Z,101151.52
2022-11-24T19:34:21.031Z,101142.98
2022-11-24T19:36:50.765Z,101136.95
2022-11-24T19:39:20.564Z,101131.13
2022-11-24T19:41:50.309Z,101134.03
2022-11-24T19:44:20.102Z,101130.75
2022-11-24T19:46:49.915Z,101129.72
2022-11-24T19:49:19.629Z,101126.55
2022-11-24T19:51:49.935Z,101135.55
2022-11-24T19:54:19.658Z,101129.76
2022-11-24T19:56:49.463Z,101128.34
2022-11-24T19:59:19.407Z,101125.68
2022-11-24T20:01:49.244Z,101128.09
2022-11-24T20:04:20.277Z,101130.18
2022-11-24T20:06:50.029Z,101137.69
2022-11-24T20:09:19.820Z,101137.69
2022-11-24T20:11:49.561Z,101134.53
2022-11-24T20:14:19.380Z,101137.25
2022-11-24T20:16:49.432Z,101139.13
2022-11-24T20:19:19.786Z,101131.98
2022-11-24T20:21:50.245Z,101141.06
2022-11-24T20:24:24.640Z,101140.22
2022-11-24T20:26:58.180Z,101139.42
2022-11-24T20:29:29.156Z,101136.66
2022-11-24T20:31:58.940Z,101134.89
2022-11-24T20:34:28.803Z,101134.89
2022-11-24T20:36:58.538Z,101127.72
2022-11-24T20:39:29.150Z,101135.77
2022-11-24T20:41:59.488Z,101131.80
2022-11-24T20:44:30.111Z,101141.91
2022-11-24T20:47:01.205Z,101134.34
2022-11-24T20:49:30.774Z,101144.38
2022-11-24T20:52:00.673Z,101130.22
2022-11-24T20:54:31.062Z,101130.22
2022-11-24T20:57:00.800Z,101127.19
2022-11-24T20:59:30.591Z,101125.04
2022-11-24T21:02:00.478Z,101131.06
2022-11-24T21:04:30.568Z,101127.52
2022-11-24T21:07:00.375Z,101125.83
2022-11-24T21:09:30.560Z,101125.83
2022-11-24T21:12:00.889Z,101118.16
2022-11-24T21:14:35.135Z,101126.16
2022-11-24T21:17:02.284Z,101118.58
2022-11-24T21:19:32.024Z,101118.58
2022-11-24T21:22:01.478Z,101125.20
2022-11-24T21:24:31.221Z,101122.13
2022-11-24T21:27:00.961Z,101128.34
2022-11-24T21:29:30.406Z,101119.25
2022-11-24T21:32:00.365Z,101115.70
2022-11-24T21:34:29.881Z,101118.64
2022-11-24T21:36:59.609Z,101115.60
2022-11-24T21:39:29.729Z,101111.13
2022-11-24T21:41:59.484Z,101106.08
2022-11-24T21:44:30.911Z,101113.55
2022-11-24T21:47:01.037Z,101109.98
2022-11-24T21:49:31.129Z,101109.98
2022-11-24T21:52:00.878Z,101100.61
2022-11-24T21:54:30.899Z,101100.61
2022-11-24T21:57:00.658Z,101103.51
2022-11-24T21:59:30.682Z,101082.11
2022-11-24T22:02:00.579Z,101082.11
2022-11-24T22:04:30.035Z,101085.20
2022-11-24T22:06:59.763Z,101083.71
2022-11-24T22:09:29.799Z,101077.41
2022-11-24T22:11:59.551Z,101088.25
2022-11-24T22:14:29.272Z,101069.31
2022-11-24T22:16:59.051Z,101069.31
2022-11-24T22:19:28.787Z,101063.44
2022-11-24T22:21:58.549Z,101063.17
2022-11-24T22:24:27.995Z,101060.58
2022-11-24T22:26:58.027Z,101057.83
2022-11-24T22:29:28.243Z,101055.52
2022-11-24T22:31:58.444Z,101056.38
2022-11-24T22:34:28.034Z,101059.97
2022-11-24T22:36:58.062Z,101056.83
2022-11-24T22:39:27.811Z,101053.78
2022-11-24T22:41:57.538Z,101053.59
2022-11-24T22:44:27.270Z,101046.63
2022-11-24T22:46:57.882Z,101052.18
2022-11-24T22:49:28.224Z,101045.52
2022-11-24T22:51:57.984Z,101045.80
2022-11-24T22:54:28.009Z,101043.09
2022-11-24T22:56:57.746Z,101051.86
2022-11-24T22:59:27.479Z,101048.34
2022-11-24T23:01:57.251Z,101057.05
2022-11-24T23:04:27.393Z,101053.27
2022-11-24T23:06:57.190Z,101048.67
2022-11-24T23:09:27.001Z,101043.20
2022-11-24T23:11:56.751Z,101044.45
2022-11-24T23:14:26.998Z,101049.59
2022-11-24T23:16:56.679Z,101048.36
2022-11-24T23:19:26.742Z,101050.08
2022-11-24T23:21:56.474Z,101049.10
2022-11-24T23:24:26.274Z,101051.34
2022-11-24T23:26:56.007Z,101047.89
2022-11-24T23:29:26.037Z,101050.47
2022-11-24T23:31:55.837Z,101050.02
2022-11-24T23:34:25.577Z,101052.42
2022-11-24T23:36:55.314Z,101052.42
2022-11-24T23:39:25.054Z,101042.34
2022-11-24T23:41:54.508Z,101050.13
2022-11-24T23:44:24.237Z,101042.50
2022-11-24T23:46:53.970Z,101033.25
2022-11-24T23:49:23.706Z,101037.88
2022-11-24T23:51:53.610Z,101037.98
2022-11-24T23:54:23.347Z,101038.95
2022-11-24T23:56:52.975Z,101035.62
2022-11-24T23:59:22.798Z,101038.39
